createdAt,value
2022-12-16T05:00:59.648Z,2.80
2022-12-16T05:01:59.628Z,3.60
2022-12-16T05:02:59.516Z,2.40
2022-12-16T05:03:59.547Z,4.10
2022-12-16T05:04:59.467Z,2.70
2022-12-16T05:05:59.484Z,3.10
2022-12-16T05:06:59.814Z,3.10
2022-12-16T05:07:59.467Z,2.80
2022-12-16T05:09:07.718Z,2.60
2022-12-16T05:09:59.413Z,2.40
2022-12-16T05:10:59.389Z,3.20
2022-12-16T05:11:59.398Z,2.60
2022-12-16T05:12:59.420Z,2.70
2022-12-16T05:13:59.371Z,3.50
2022-12-16T05:14:59.468Z,2.70
2022-12-16T05:15:59.536Z,3.10
2022-12-16T05:16:59.364Z,2.90
2022-12-16T05:17:59.359Z,2.60
2022-12-16T05:18:59.434Z,3.00
2022-12-16T05:19:59.302Z,3.80
2022-12-16T05:20:59.265Z,3.40
2022-12-16T05:21:59.404Z,3.00
2022-12-16T05:22:59.236Z,3.80
2022-12-16T05:23:59.426Z,3.70
2022-12-16T05:24:59.253Z,2.80
2022-12-16T05:25:59.224Z,3.30
2022-12-16T05:26:59.192Z,2.70
2022-12-16T05:27:59.309Z,3.10
2022-12-16T05:28:59.160Z,3.20
2022-12-16T05:29:59.200Z,4.00
2022-12-16T05:30:59.629Z,3.50
2022-12-16T05:31:59.244Z,3.00
2022-12-16T05:32:59.109Z,2.30
2022-12-16T05:33:59.134Z,2.70
2022-12-16T05:34:59.077Z,2.60
2022-12-16T05:35:59.109Z,3.00
2022-12-16T05:36:59.096Z,2.50
2022-12-16T05:37:59.073Z,2.90
2022-12-16T05:38:59.059Z,3.50
2022-12-16T05:39:59.037Z,2.30
2022-12-16T05:40:59.018Z,3.10
2022-12-16T05:41:59.215Z,2.80
2022-12-16T05:42:59.010Z,3.30
2022-12-16T05:43:59.023Z,3.90
2022-12-16T05:44:58.999Z,3.80
2022-12-16T05:45:59.027Z,2.50
2022-12-16T05:46:59.052Z,2.80
2022-12-16T05:47:59.063Z,2.90
2022-12-16T05:48:58.933Z,3.60
2022-12-16T05:49:58.913Z,3.70
2022-12-16T05:50:58.889Z,4.30
2022-12-16T05:51:58.960Z,2.80
2022-12-16T05:52:58.863Z,2.50
2022-12-16T05:53:58.937Z,2.80
2022-12-16T05:54:58.868Z,2.60
2022-12-16T05:55:58.909Z,3.50
2022-12-16T05:56:58.820Z,3.00
2022-12-16T05:57:58.836Z,2.80
2022-12-16T05:58:58.821Z,3.10
2022-12-16T05:59:58.818Z,2.50
2022-12-16T06:00:58.758Z,3.70
2022-12-16T06:01:59.269Z,3.10
2022-12-16T06:02:58.946Z,3.20
2022-12-16T06:03:58.883Z,3.00
2022-12-16T06:04:58.725Z,3.80
2022-12-16T06:05:58.714Z,2.40
2022-12-16T06:06:58.676Z,2.70
2022-12-16T06:07:58.812Z,2.60
2022-12-16T06:08:58.657Z,1.90
2022-12-16T06:09:58.667Z,2.40
2022-12-16T06:10:58.659Z,2.80
2022-12-16T06:11:58.653Z,2.80
2022-12-16T06:12:58.608Z,2.50
2022-12-16T06:13:58.933Z,3.10
2022-12-16T06:14:58.594Z,2.30
2022-12-16T06:16:01.419Z,3.40
2022-12-16T06:16:59.590Z,2.90
2022-12-16T06:17:58.576Z,2.90
2022-12-16T06:18:58.530Z,3.70
2022-12-16T06:19:58.625Z,3.70
2022-12-16T06:20:58.512Z,3.40
2022-12-16T06:21:58.523Z,2.60
2022-12-16T06:22:58.529Z,3.40
2022-12-16T06:23:58.500Z,2.80
2022-12-16T06:24:58.461Z,2.50
2022-12-16T06:25:58.613Z,3.10
2022-12-16T06:26:58.500Z,3.50
2022-12-16T06:27:58.448Z,2.20
2022-12-16T06:28:58.422Z,2.90
2022-12-16T06:29:58.499Z,3.20
2022-12-16T06:30:58.395Z,2.60
2022-12-16T06:31:58.493Z,2.70
2022-12-16T06:32:58.457Z,2.20
2022-12-16T06:33:58.358Z,2.70
2022-12-16T06:34:58.356Z,2.60
2022-12-16T06:35:58.331Z,2.50
2022-12-16T06:36:58.300Z,3.50
2022-12-16T06:37:58.406Z,1.80
2022-12-16T06:38:58.291Z,3.20
2022-12-16T06:39:58.305Z,2.20
2022-12-16T06:40:58.269Z,2.40
2022-12-16T06:41:58.289Z,2.90
2022-12-16T06:42:58.228Z,3.80
2022-12-16T06:43:58.436Z,2.60
2022-12-16T06:44:58.260Z,2.80
2022-12-16T06:45:58.239Z,2.70
2022-12-16T06:46:58.219Z,3.40
2022-12-16T06:47:58.193Z,2.60
2022-12-16T06:48:58.153Z,3.30
2022-12-16T06:49:58.423Z,3.30
2022-12-16T06:50:58.167Z,3.80
2022-12-16T06:51:58.123Z,2.60
2022-12-16T06:52:58.101Z,2.60
2022-12-16T06:53:58.123Z,2.70
2022-12-16T06:54:58.128Z,2.60
2022-12-16T06:55:58.130Z,2.80
2022-12-16T06:56:58.308Z,3.10
2022-12-16T06:57:58.063Z,2.50
2022-12-16T06:58:58.029Z,2.90
2022-12-16T06:59:58.071Z,2.50
2022-12-16T07:00:58.068Z,3.10
2022-12-16T07:01:58.144Z,2.20
2022-12-16T07:02:58.039Z,2.60
2022-12-16T07:03:58.077Z,2.80
2022-12-16T07:04:57.958Z,3.10
2022-12-16T07:05:57.977Z,3.50
2022-12-16T07:06:57.915Z,2.10
2022-12-16T07:07:58.184Z,3.10
2022-12-16T07:08:57.897Z,3.80
2022-12-16T07:09:57.966Z,2.50
2022-12-16T07:11:04.835Z,3.10
2022-12-16T07:11:58.913Z,2.60
2022-12-16T07:12:57.841Z,2.50
2022-12-16T07:13:58.104Z,3.40
2022-12-16T07:14:57.842Z,2.90
2022-12-16T07:15:57.870Z,2.20
2022-12-16T07:16:57.862Z,2.50
2022-12-16T07:17:57.804Z,2.50
2022-12-16T07:18:57.781Z,2.60
2022-12-16T07:19:57.973Z,3.70
2022-12-16T07:20:57.773Z,3.00
2022-12-16T07:21:57.769Z,2.30
2022-12-16T07:23:06.148Z,3.10
2022-12-16T07:23:58.756Z,3.00
2022-12-16T07:24:57.721Z,2.70
2022-12-16T07:25:57.921Z,2.70
2022-12-16T07:26:57.699Z,3.20
2022-12-16T07:27:57.694Z,2.50
2022-12-16T07:28:57.670Z,2.50
2022-12-16T07:29:57.661Z,2.10
2022-12-16T07:30:57.634Z,2.30
2022-12-16T07:31:57.722Z,2.30
2022-12-16T07:32:57.597Z,3.50
2022-12-16T07:33:57.780Z,2.40
2022-12-16T07:34:57.625Z,2.90
2022-12-16T07:35:57.585Z,4.20
2022-12-16T07:36:57.546Z,3.10
2022-12-16T07:37:57.566Z,2.70
2022-12-16T07:38:57.528Z,3.60
2022-12-16T07:39:57.771Z,2.70
2022-12-16T07:40:57.493Z,3.90
2022-12-16T07:41:57.526Z,2.10
2022-12-16T07:42:57.497Z,3.10
2022-12-16T07:43:57.542Z,2.70
2022-12-16T07:44:57.443Z,2.70
2022-12-16T07:45:57.605Z,2.50
2022-12-16T07:46:57.414Z,3.40
2022-12-16T07:47:57.430Z,2.70
2022-12-16T07:48:57.404Z,2.70
2022-12-16T07:49:57.402Z,2.40
2022-12-16T07:50:57.359Z,2.10
2022-12-16T07:51:57.454Z,2.70
2022-12-16T07:52:57.332Z,2.10
2022-12-16T07:53:57.371Z,2.90
2022-12-16T07:54:57.320Z,3.30
2022-12-16T07:55:57.410Z,3.20
2022-12-16T07:56:57.288Z,2.50
2022-12-16T07:57:57.408Z,2.50
2022-12-16T07:58:57.318Z,2.20
2022-12-16T07:59:57.321Z,2.30
2022-12-16T08:00:57.344Z,2.40
2022-12-16T08:01:57.345Z,2.30
2022-12-16T08:02:57.339Z,3.20
2022-12-16T08:03:57.489Z,3.30
2022-12-16T08:04:57.184Z,2.90
2022-12-16T08:05:57.585Z,2.80
2022-12-16T08:06:57.216Z,2.10
2022-12-16T08:07:57.184Z,2.50
2022-12-16T08:08:57.146Z,2.60
2022-12-16T08:09:57.175Z,2.90
2022-12-16T08:10:57.115Z,3.30
2022-12-16T08:11:57.189Z,2.80
2022-12-16T08:12:57.090Z,2.10
2022-12-16T08:13:57.104Z,2.60
2022-12-16T08:14:57.074Z,3.00
2022-12-16T08:15:57.071Z,2.30
2022-12-16T08:16:57.125Z,3.50
2022-12-16T08:17:57.402Z,2.70
2022-12-16T08:18:57.020Z,3.60
2022-12-16T08:19:57.020Z,3.40
2022-12-16T08:20:56.979Z,2.60
2022-12-16T08:21:57.006Z,2.20
2022-12-16T08:22:56.958Z,2.60
2022-12-16T08:23:57.488Z,2.70
2022-12-16T08:24:56.947Z,2.60
2022-12-16T08:25:56.969Z,2.30
2022-12-16T08:26:56.977Z,3.00
2022-12-16T08:27:56.909Z,3.20
2022-12-16T08:29:02.068Z,3.10
2022-12-16T08:29:57.954Z,2.70
2022-12-16T08:30:56.896Z,2.80
2022-12-16T08:31:56.873Z,3.00
2022-12-16T08:32:59.713Z,3.00
2022-12-16T08:33:57.850Z,2.50
2022-12-16T08:34:57.844Z,3.90
2022-12-16T08:35:56.815Z,2.20
2022-12-16T08:36:56.786Z,2.90
2022-12-16T08:37:56.796Z,3.20
2022-12-16T08:38:56.761Z,3.70
2022-12-16T08:40:58.275Z,2.40
2022-12-16T08:41:56.751Z,2.40
2022-12-16T08:42:56.772Z,2.30
2022-12-16T08:43:56.711Z,2.10
2022-12-16T08:44:56.683Z,2.50
2022-12-16T08:45:56.823Z,2.10
2022-12-16T08:46:56.863Z,2.20
2022-12-16T08:47:56.661Z,3.00
2022-12-16T08:48:56.629Z,2.80
2022-12-16T08:49:59.789Z,3.50
2022-12-16T08:50:57.616Z,3.30
2022-12-16T08:51:56.619Z,3.00
2022-12-16T08:52:56.747Z,1.90
2022-12-16T08:53:56.586Z,2.50
2022-12-16T08:54:56.557Z,3.60
2022-12-16T08:55:56.566Z,2.80
2022-12-16T08:56:56.545Z,2.80
2022-12-16T08:57:56.536Z,2.80
2022-12-16T08:58:56.538Z,3.60
2022-12-16T08:59:56.799Z,2.50
2022-12-16T09:00:58.383Z,3.30
2022-12-16T09:01:56.605Z,3.40
2022-12-16T09:02:56.624Z,3.50
2022-12-16T09:03:56.550Z,2.30
2022-12-16T09:04:56.423Z,3.70
2022-12-16T09:05:56.476Z,3.00
2022-12-16T09:06:56.425Z,2.70
2022-12-16T09:07:56.392Z,4.10
2022-12-16T09:08:56.411Z,2.00
2022-12-16T09:09:56.362Z,3.40
2022-12-16T09:10:56.453Z,2.60
2022-12-16T09:11:56.333Z,3.50
2022-12-16T09:12:56.363Z,2.50
2022-12-16T09:13:56.307Z,2.30
2022-12-16T09:14:56.331Z,2.40
2022-12-16T09:15:56.351Z,2.70
2022-12-16T09:16:56.357Z,2.90
2022-12-16T09:17:56.292Z,2.30
2022-12-16T09:18:56.296Z,3.00
2022-12-16T09:19:56.233Z,3.70
2022-12-16T09:20:56.301Z,2.30
2022-12-16T09:21:56.217Z,3.70
2022-12-16T09:22:56.237Z,2.60
2022-12-16T09:23:56.188Z,2.50
2022-12-16T09:24:56.214Z,2.90
2022-12-16T09:25:56.527Z,3.70
2022-12-16T09:26:56.292Z,3.10
2022-12-16T09:27:56.135Z,2.60
2022-12-16T09:28:56.168Z,2.90
2022-12-16T09:29:56.107Z,2.70
2022-12-16T09:30:56.187Z,3.30
2022-12-16T09:31:56.135Z,2.70
2022-12-16T09:32:56.125Z,2.80
2022-12-16T09:33:56.066Z,2.80
2022-12-16T09:34:56.090Z,2.60
2022-12-16T09:35:56.162Z,2.90
2022-12-16T09:36:56.095Z,3.40
2022-12-16T09:37:56.015Z,3.00
2022-12-16T09:38:56.061Z,2.30
2022-12-16T09:39:56.000Z,2.50
2022-12-16T09:40:56.002Z,2.70
2022-12-16T09:41:56.153Z,7.70
2022-12-16T09:42:55.978Z,4.70
2022-12-16T09:43:55.971Z,3.60
2022-12-16T09:44:55.948Z,4.10
2022-12-16T09:45:56.144Z,3.30
2022-12-16T09:46:55.963Z,2.30
2022-12-16T09:47:55.917Z,3.00
2022-12-16T09:48:55.910Z,2.80
2022-12-16T09:49:55.897Z,2.80
2022-12-16T09:50:55.926Z,3.40
2022-12-16T09:51:57.009Z,2.80
2022-12-16T09:52:55.846Z,2.70
2022-12-16T09:53:55.915Z,2.70
2022-12-16T09:54:55.833Z,3.30
2022-12-16T09:55:55.802Z,2.10
2022-12-16T09:56:55.808Z,2.60
2022-12-16T09:57:55.807Z,1.50
2022-12-16T09:58:55.781Z,2.00
2022-12-16T09:59:55.754Z,2.20
2022-12-16T10:00:55.824Z,1.90
2022-12-16T10:01:55.935Z,2.30
2022-12-16T10:02:56.366Z,1.80
2022-12-16T10:03:57.143Z,2.90
2022-12-16T10:04:55.909Z,2.40
2022-12-16T10:05:55.672Z,2.00
2022-12-16T10:06:55.880Z,1.90
2022-12-16T10:07:55.652Z,2.20
2022-12-16T10:08:55.643Z,2.20
2022-12-16T10:09:55.662Z,1.60
2022-12-16T10:10:55.621Z,2.00
2022-12-16T10:11:55.594Z,2.10
2022-12-16T10:12:55.601Z,3.00
2022-12-16T10:13:55.565Z,2.40
2022-12-16T10:14:55.611Z,3.00
2022-12-16T10:15:56.821Z,2.00
2022-12-16T10:16:55.549Z,2.40
2022-12-16T10:17:55.511Z,2.60
2022-12-16T10:18:55.682Z,3.00
2022-12-16T10:19:55.488Z,2.20
2022-12-16T10:20:55.538Z,1.80
2022-12-16T10:21:56.241Z,2.30
2022-12-16T10:22:55.477Z,1.90
2022-12-16T10:23:55.465Z,1.90
2022-12-16T10:24:55.465Z,2.20
2022-12-16T10:25:55.418Z,2.00
2022-12-16T10:26:55.421Z,2.00
2022-12-16T10:27:55.444Z,2.40
2022-12-16T10:28:55.540Z,2.10
2022-12-16T10:29:55.403Z,2.90
2022-12-16T10:30:55.437Z,1.70
2022-12-16T10:31:55.334Z,1.80
2022-12-16T10:32:55.334Z,1.40
2022-12-16T10:33:56.287Z,2.60
2022-12-16T10:34:55.335Z,1.80
2022-12-16T10:35:55.551Z,2.10
2022-12-16T10:36:55.307Z,2.30
2022-12-16T10:37:55.282Z,2.20
2022-12-16T10:38:55.275Z,1.50
2022-12-16T10:39:56.164Z,2.10
2022-12-16T10:40:55.250Z,2.10
2022-12-16T10:41:55.243Z,2.20
2022-12-16T10:42:55.523Z,1.70
2022-12-16T10:43:55.183Z,1.50
2022-12-16T10:44:55.773Z,1.70
2022-12-16T10:45:56.505Z,2.00
2022-12-16T10:46:55.286Z,2.30
2022-12-16T10:47:55.137Z,1.70
2022-12-16T10:48:56.466Z,1.40
2022-12-16T10:49:55.251Z,1.80
2022-12-16T10:50:55.149Z,1.40
2022-12-16T10:51:55.165Z,1.90
2022-12-16T10:52:55.151Z,1.70
2022-12-16T10:53:55.061Z,1.80
2022-12-16T10:54:55.081Z,1.50
2022-12-16T10:55:55.130Z,2.10
2022-12-16T10:56:55.074Z,1.50
2022-12-16T10:57:55.157Z,1.80
2022-12-16T10:58:55.047Z,1.40
2022-12-16T10:59:54.995Z,1.60
2022-12-16T11:00:55.035Z,1.40
2022-12-16T11:01:54.967Z,2.10
2022-12-16T11:02:55.258Z,1.70
2022-12-16T11:03:55.164Z,1.30
2022-12-16T11:04:55.812Z,1.60
2022-12-16T11:05:54.905Z,1.60
2022-12-16T11:06:55.259Z,2.10
2022-12-16T11:07:54.890Z,2.10
2022-12-16T11:08:55.636Z,2.30
2022-12-16T11:09:55.004Z,1.40
2022-12-16T11:10:56.178Z,1.60
2022-12-16T11:11:55.636Z,2.30
2022-12-16T11:12:54.864Z,1.80
2022-12-16T11:13:54.821Z,2.20
2022-12-16T11:15:27.102Z,1.90
2022-12-16T11:15:55.861Z,1.30
2022-12-16T11:16:54.791Z,2.10
2022-12-16T11:17:55.926Z,1.70
2022-12-16T11:18:54.772Z,1.30
2022-12-16T11:19:54.741Z,1.70
2022-12-16T11:20:54.739Z,1.40
2022-12-16T11:21:54.710Z,1.50
2022-12-16T11:22:54.739Z,1.70
2022-12-16T11:23:55.143Z,2.20
2022-12-16T11:24:54.692Z,1.40
2022-12-16T11:25:54.659Z,1.70
2022-12-16T11:26:54.659Z,2.10
2022-12-16T11:27:54.632Z,6.40
2022-12-16T11:28:54.638Z,3.10
2022-12-16T11:29:54.800Z,1.80
2022-12-16T11:30:55.172Z,1.60
2022-12-16T11:31:59.507Z,2.40
2022-12-16T11:32:55.651Z,2.30
2022-12-16T11:33:54.696Z,2.00
2022-12-16T11:34:54.576Z,1.80
2022-12-16T11:35:54.582Z,1.60
2022-12-16T11:36:54.584Z,1.80
2022-12-16T11:37:57.492Z,2.10
2022-12-16T11:38:54.563Z,1.60
2022-12-16T11:39:54.485Z,1.90
2022-12-16T11:40:54.504Z,2.00
2022-12-16T11:42:30.700Z,1.70
2022-12-16T11:42:54.441Z,2.20
2022-12-16T11:43:54.450Z,2.40
2022-12-16T11:44:54.435Z,1.90
2022-12-16T11:45:54.425Z,2.20
2022-12-16T11:46:54.462Z,2.50
2022-12-16T11:47:55.037Z,1.80
2022-12-16T11:48:54.455Z,1.40
2022-12-16T11:49:54.387Z,1.60
2022-12-16T11:50:54.383Z,1.20
2022-12-16T11:52:03.748Z,1.50
2022-12-16T11:52:55.434Z,1.70
2022-12-16T11:53:54.311Z,1.80
2022-12-16T11:54:54.301Z,2.00
2022-12-16T11:56:10.810Z,1.80
2022-12-16T11:56:55.306Z,2.20
2022-12-16T11:57:54.336Z,1.60
2022-12-16T11:58:54.262Z,1.70
2022-12-16T11:59:55.218Z,1.90
2022-12-16T12:00:54.838Z,1.90
2022-12-16T12:01:55.677Z,1.50
2022-12-16T12:02:54.277Z,1.80
2022-12-16T12:03:54.546Z,2.20
2022-12-16T12:04:54.168Z,1.90
2022-12-16T12:05:54.176Z,1.60
2022-12-16T12:06:54.279Z,2.40
2022-12-16T12:07:55.509Z,1.90
2022-12-16T12:08:54.137Z,2.00
2022-12-16T12:09:54.136Z,1.50
2022-12-16T12:10:54.107Z,2.70
2022-12-16T12:11:54.112Z,1.50
2022-12-16T12:12:55.167Z,1.20
2022-12-16T12:13:54.108Z,1.50
2022-12-16T12:14:54.045Z,1.60
2022-12-16T12:15:54.199Z,1.60
2022-12-16T12:16:54.044Z,1.80
2022-12-16T12:17:54.032Z,1.70
2022-12-16T12:18:54.018Z,2.10
2022-12-16T12:20:01.526Z,2.30
2022-12-16T12:21:00.970Z,2.20
2022-12-16T12:22:01.991Z,1.10
2022-12-16T12:23:00.957Z,1.90
2022-12-16T12:23:53.991Z,2.00
2022-12-16T12:24:57.826Z,1.40
2022-12-16T12:25:53.919Z,1.60
2022-12-16T12:26:53.910Z,1.80
2022-12-16T12:27:53.886Z,1.90
2022-12-16T12:28:53.856Z,1.60
2022-12-16T12:29:54.108Z,2.50
2022-12-16T12:30:53.827Z,1.60
2022-12-16T12:31:53.924Z,1.50
2022-12-16T12:32:53.809Z,1.70
2022-12-16T12:33:53.844Z,1.90
2022-12-16T12:34:53.791Z,1.30
2022-12-16T12:35:53.875Z,1.40
2022-12-16T12:36:53.801Z,2.20
2022-12-16T12:37:53.780Z,2.20
2022-12-16T12:38:53.746Z,1.90
2022-12-16T12:39:53.762Z,2.10
2022-12-16T12:40:53.713Z,1.70
2022-12-16T12:41:54.006Z,2.20
2022-12-16T12:42:53.695Z,1.70
2022-12-16T12:43:53.705Z,1.70
2022-12-16T12:44:53.660Z,1.80
2022-12-16T12:45:54.188Z,2.00
2022-12-16T12:46:53.674Z,1.70
2022-12-16T12:47:53.677Z,2.30
2022-12-16T12:48:57.393Z,1.80
2022-12-16T12:49:53.628Z,1.50
2022-12-16T12:50:53.579Z,2.00
2022-12-16T12:51:54.823Z,2.10
2022-12-16T12:52:53.556Z,2.00
2022-12-16T12:53:53.610Z,1.80
2022-12-16T12:54:53.536Z,1.30
2022-12-16T12:55:53.574Z,2.10
2022-12-16T12:56:53.529Z,1.40
2022-12-16T12:57:55.826Z,1.80
2022-12-16T12:58:53.485Z,1.80
2022-12-16T12:59:57.252Z,2.10
2022-12-16T13:00:54.481Z,1.30
2022-12-16T13:01:53.679Z,1.80
2022-12-16T13:02:53.597Z,1.90
2022-12-16T13:03:54.084Z,2.00
2022-12-16T13:04:53.402Z,1.80
2022-12-16T13:05:53.439Z,2.20
2022-12-16T13:06:53.377Z,1.60
2022-12-16T13:07:53.435Z,2.00
2022-12-16T13:08:53.374Z,1.60
2022-12-16T13:09:53.931Z,1.30
2022-12-16T13:10:53.324Z,1.70
2022-12-16T13:11:53.318Z,1.50
2022-12-16T13:12:53.308Z,1.60
2022-12-16T13:13:53.315Z,1.80
2022-12-16T13:14:53.284Z,1.70
2022-12-16T13:15:53.374Z,1.80
2022-12-16T13:16:53.361Z,2.20
2022-12-16T13:17:53.264Z,1.30
2022-12-16T13:18:53.244Z,2.20
2022-12-16T13:19:53.300Z,2.10
2022-12-16T13:20:53.225Z,2.20
2022-12-16T13:21:53.449Z,2.20
2022-12-16T13:22:53.238Z,1.60
2022-12-16T13:23:53.170Z,2.00
2022-12-16T13:24:53.979Z,2.10
2022-12-16T13:25:53.149Z,1.30
2022-12-16T13:26:53.243Z,1.50
2022-12-16T13:27:53.131Z,1.80
2022-12-16T13:28:53.127Z,1.60
2022-12-16T13:29:53.092Z,1.40
2022-12-16T13:30:53.791Z,1.50
2022-12-16T13:31:53.107Z,1.30
2022-12-16T13:32:53.137Z,1.50
2022-12-16T13:33:53.024Z,1.70
2022-12-16T13:34:53.167Z,1.50
2022-12-16T13:35:53.027Z,1.90
2022-12-16T13:36:53.104Z,1.90
2022-12-16T13:37:53.029Z,1.70
2022-12-16T13:38:53.018Z,1.80
2022-12-16T13:39:52.944Z,1.70
2022-12-16T13:40:52.962Z,1.60
2022-12-16T13:41:52.952Z,1.20
2022-12-16T13:42:53.857Z,1.50
2022-12-16T13:43:52.943Z,1.60
2022-12-16T13:44:52.901Z,1.70
2022-12-16T13:45:52.937Z,2.20
2022-12-16T13:46:52.883Z,2.00
2022-12-16T13:47:52.913Z,1.50
2022-12-16T13:49:00.214Z,1.80
2022-12-16T13:49:59.868Z,1.50
2022-12-16T13:50:59.848Z,1.30
2022-12-16T13:51:52.789Z,1.60
2022-12-16T13:52:52.809Z,1.30
2022-12-16T13:53:52.770Z,1.10
2022-12-16T13:54:52.868Z,2.10
2022-12-16T13:55:52.761Z,1.70
2022-12-16T13:56:52.795Z,1.40
2022-12-16T13:57:52.868Z,1.00
2022-12-16T13:58:52.839Z,1.90
2022-12-16T13:59:52.705Z,1.60
2022-12-16T14:00:57.782Z,1.60
2022-12-16T14:01:52.751Z,1.80
2022-12-16T14:02:52.811Z,1.60
2022-12-16T14:03:52.697Z,1.30
2022-12-16T14:04:52.674Z,1.80
2022-12-16T14:05:52.625Z,1.80
2022-12-16T14:06:53.968Z,1.90
2022-12-16T14:07:52.598Z,2.10
2022-12-16T14:08:52.640Z,1.90
2022-12-16T14:09:52.610Z,1.80
2022-12-16T14:10:52.840Z,1.40
2022-12-16T14:11:52.568Z,2.10
2022-12-16T14:12:52.554Z,1.60
2022-12-16T14:13:52.519Z,1.90
2022-12-16T14:14:52.554Z,2.10
2022-12-16T14:15:52.519Z,2.30
2022-12-16T14:16:52.676Z,1.30
2022-12-16T14:17:52.477Z,1.60
2022-12-16T14:18:52.509Z,2.10
2022-12-16T14:19:52.555Z,1.70
2022-12-16T14:20:52.494Z,1.30
2022-12-16T14:21:52.435Z,1.80
2022-12-16T14:22:52.539Z,1.60
2022-12-16T14:23:57.345Z,2.00
2022-12-16T14:24:53.407Z,2.10
2022-12-16T14:25:52.486Z,1.60
2022-12-16T14:26:52.414Z,1.50
2022-12-16T14:27:52.397Z,1.40
2022-12-16T14:28:52.634Z,1.40
2022-12-16T14:29:52.404Z,1.70
2022-12-16T14:30:52.393Z,1.90
2022-12-16T14:31:53.178Z,2.20
2022-12-16T14:32:52.318Z,2.00
2022-12-16T14:33:52.263Z,1.80
2022-12-16T14:34:52.906Z,1.60
2022-12-16T14:35:52.252Z,2.20
2022-12-16T14:36:52.274Z,1.80
2022-12-16T14:37:52.241Z,1.70
2022-12-16T14:38:52.252Z,1.60
2022-12-16T14:39:52.201Z,1.90
2022-12-16T14:40:52.277Z,1.10
2022-12-16T14:41:52.184Z,2.20
2022-12-16T14:42:52.194Z,1.50
2022-12-16T14:43:52.181Z,2.20
2022-12-16T14:44:52.159Z,1.50
2022-12-16T14:45:53.592Z,1.40
2022-12-16T14:46:52.148Z,1.50
2022-12-16T14:47:52.168Z,1.30
2022-12-16T14:48:52.096Z,1.60
2022-12-16T14:49:52.109Z,1.50
2022-12-16T14:50:52.096Z,1.40
2022-12-16T14:51:52.398Z,2.10
2022-12-16T14:52:52.057Z,1.90
2022-12-16T14:53:52.035Z,1.50
2022-12-16T14:54:52.031Z,1.90
2022-12-16T14:55:52.028Z,2.20
2022-12-16T14:56:52.024Z,1.70
2022-12-16T14:57:52.009Z,1.80
2022-12-16T14:58:51.973Z,1.40
2022-12-16T14:59:51.998Z,1.10
2022-12-16T15:00:52.877Z,2.10
2022-12-16T15:01:52.231Z,1.60
2022-12-16T15:02:52.234Z,1.20
2022-12-16T15:03:52.069Z,2.00
2022-12-16T15:04:52.045Z,1.20
2022-12-16T15:05:51.864Z,1.40
2022-12-16T15:06:52.247Z,2.00
2022-12-16T15:07:51.845Z,1.40
2022-12-16T15:08:51.919Z,1.90
2022-12-16T15:09:51.829Z,1.40
2022-12-16T15:10:51.831Z,3.00
2022-12-16T15:11:51.799Z,2.10
2022-12-16T15:12:52.245Z,1.50
2022-12-16T15:13:51.774Z,1.30
2022-12-16T15:14:51.816Z,1.40
2022-12-16T15:15:51.749Z,2.30
2022-12-16T15:16:51.866Z,1.70
2022-12-16T15:17:51.738Z,1.70
2022-12-16T15:18:51.820Z,1.80
2022-12-16T15:19:51.692Z,2.60
2022-12-16T15:20:58.723Z,1.30
2022-12-16T15:21:58.772Z,1.90
2022-12-16T15:22:59.736Z,2.10
2022-12-16T15:23:58.669Z,1.50
2022-12-16T15:24:51.652Z,1.40
2022-12-16T15:25:57.025Z,1.40
2022-12-16T15:26:52.617Z,1.20
2022-12-16T15:27:51.615Z,1.70
2022-12-16T15:28:51.624Z,1.40
2022-12-16T15:29:51.584Z,1.90
2022-12-16T15:30:51.648Z,1.90
2022-12-16T15:31:52.155Z,1.90
2022-12-16T15:32:51.569Z,1.40
2022-12-16T15:33:51.517Z,2.10
2022-12-16T15:34:51.551Z,1.80
2022-12-16T15:35:51.499Z,2.20
2022-12-16T15:36:51.522Z,2.00
2022-12-16T15:37:52.875Z,1.70
2022-12-16T15:38:51.492Z,1.50
2022-12-16T15:39:51.461Z,1.50
2022-12-16T15:40:51.460Z,2.00
2022-12-16T15:41:51.432Z,2.10
2022-12-16T15:42:51.471Z,1.60
2022-12-16T15:43:56.162Z,1.50
2022-12-16T15:44:52.393Z,1.60
2022-12-16T15:45:51.435Z,1.80
2022-12-16T15:46:51.378Z,1.40
2022-12-16T15:47:51.341Z,1.30
2022-12-16T15:48:51.366Z,1.50
2022-12-16T15:49:51.874Z,2.00
2022-12-16T15:50:51.340Z,1.90
2022-12-16T15:51:51.315Z,1.40
2022-12-16T15:52:51.295Z,1.20
2022-12-16T15:53:51.367Z,1.70
2022-12-16T15:54:51.285Z,1.60
2022-12-16T15:55:51.383Z,0.90
2022-12-16T15:56:51.314Z,1.70
2022-12-16T15:57:51.222Z,1.10
2022-12-16T15:58:51.242Z,1.70
2022-12-16T15:59:51.245Z,1.90
2022-12-16T16:00:52.131Z,1.60
2022-12-16T16:01:51.250Z,1.30
2022-12-16T16:02:51.459Z,1.70
2022-12-16T16:03:51.174Z,1.10
2022-12-16T16:04:51.201Z,1.40
2022-12-16T16:05:51.323Z,1.30
2022-12-16T16:06:51.461Z,2.30
2022-12-16T16:07:51.082Z,1.50
2022-12-16T16:08:51.098Z,1.80
2022-12-16T16:09:51.076Z,1.80
2022-12-16T16:10:51.067Z,1.90
2022-12-16T16:11:51.049Z,1.60
2022-12-16T16:12:51.721Z,2.10
2022-12-16T16:13:51.018Z,1.80
2022-12-16T16:14:51.036Z,1.90
2022-12-16T16:15:51.063Z,2.30
2022-12-16T16:16:51.001Z,2.30
2022-12-16T16:17:51.029Z,2.20
2022-12-16T16:18:51.077Z,2.10
2022-12-16T16:19:50.933Z,1.60
2022-12-16T16:20:50.947Z,1.60
2022-12-16T16:21:50.919Z,1.40
2022-12-16T16:22:50.923Z,2.20
2022-12-16T16:23:50.906Z,2.20
2022-12-16T16:24:51.000Z,1.60
2022-12-16T16:25:50.853Z,2.10
2022-12-16T16:26:50.876Z,1.80
2022-12-16T16:27:50.845Z,1.80
2022-12-16T16:28:50.852Z,1.40
2022-12-16T16:29:50.872Z,2.30
2022-12-16T16:30:51.154Z,1.80
2022-12-16T16:31:50.789Z,1.80
2022-12-16T16:32:50.809Z,2.70
2022-12-16T16:33:50.847Z,2.20
2022-12-16T16:34:50.814Z,2.90
2022-12-16T16:35:50.747Z,2.00
2022-12-16T16:36:50.880Z,2.50
2022-12-16T16:37:50.752Z,2.50
2022-12-16T16:38:50.718Z,2.20
2022-12-16T16:39:50.677Z,1.90
2022-12-16T16:40:50.727Z,1.90
2022-12-16T16:41:50.715Z,1.90
2022-12-16T16:42:51.432Z,1.90
2022-12-16T16:43:50.658Z,1.70
2022-12-16T16:44:50.649Z,2.20
2022-12-16T16:45:50.654Z,1.60
2022-12-16T16:46:50.726Z,1.70
2022-12-16T16:47:50.627Z,1.50
2022-12-16T16:48:50.886Z,2.40
2022-12-16T16:49:50.554Z,2.40
2022-12-16T16:50:50.596Z,1.80
2022-12-16T16:51:50.557Z,2.10
2022-12-16T16:52:50.607Z,1.70
2022-12-16T16:53:50.534Z,1.80
2022-12-16T16:54:50.682Z,1.60
2022-12-16T16:55:50.481Z,1.70
2022-12-16T16:56:50.539Z,1.70
2022-12-16T16:57:50.472Z,2.00
2022-12-16T16:58:50.461Z,1.80
2022-12-16T16:59:50.449Z,2.30
2022-12-16T17:00:50.598Z,1.90
2022-12-16T17:01:50.616Z,1.90
2022-12-16T17:02:50.619Z,2.10
2022-12-16T17:03:50.501Z,1.90
2022-12-16T17:04:50.512Z,1.40
2022-12-16T17:05:50.408Z,2.10
2022-12-16T17:06:50.377Z,1.60
2022-12-16T17:07:57.879Z,2.50
2022-12-16T17:08:57.843Z,2.50
2022-12-16T17:09:57.829Z,1.30
2022-12-16T17:10:57.438Z,2.00
2022-12-16T17:11:50.298Z,2.00
2022-12-16T17:12:50.264Z,1.90
2022-12-16T17:13:51.303Z,1.80
2022-12-16T17:14:50.274Z,2.00
2022-12-16T17:15:50.280Z,1.60
2022-12-16T17:16:50.224Z,1.70
2022-12-16T17:17:50.231Z,1.40
2022-12-16T17:18:52.552Z,2.00
2022-12-16T17:19:51.369Z,2.40
2022-12-16T17:20:50.172Z,2.40
2022-12-16T17:21:50.199Z,1.60
2022-12-16T17:22:50.174Z,1.40
2022-12-16T17:23:50.179Z,1.30
2022-12-16T17:24:53.983Z,2.40
2022-12-16T17:25:50.334Z,2.10
2022-12-16T17:26:50.090Z,1.70
2022-12-16T17:27:50.141Z,1.40
2022-12-16T17:28:50.084Z,1.40
2022-12-16T17:29:50.170Z,2.10
2022-12-16T17:30:50.041Z,1.80
2022-12-16T17:31:50.674Z,1.50
2022-12-16T17:32:50.040Z,2.30
2022-12-16T17:33:50.069Z,1.50
2022-12-16T17:34:50.029Z,1.50
2022-12-16T17:35:50.000Z,2.00
2022-12-16T17:36:49.961Z,1.30
2022-12-16T17:37:50.128Z,1.70
2022-12-16T17:38:57.446Z,1.40
2022-12-16T17:39:57.512Z,1.80
2022-12-16T17:40:57.423Z,2.20
2022-12-16T17:41:56.947Z,1.60
2022-12-16T17:42:49.877Z,2.50
2022-12-16T17:43:49.945Z,1.90
2022-12-16T17:44:49.864Z,1.70
2022-12-16T17:45:49.910Z,1.50
2022-12-16T17:46:49.940Z,2.20
2022-12-16T17:47:49.902Z,3.30
2022-12-16T17:48:52.373Z,1.50
2022-12-16T17:49:49.844Z,1.60
2022-12-16T17:50:49.784Z,2.00
2022-12-16T17:51:49.834Z,1.80
2022-12-16T17:52:49.763Z,1.90
2022-12-16T17:53:49.845Z,1.60
2022-12-16T17:54:49.847Z,1.70
2022-12-16T17:55:49.766Z,2.50
2022-12-16T17:56:49.720Z,2.70
2022-12-16T17:57:49.741Z,2.10
2022-12-16T17:58:49.897Z,2.40
2022-12-16T17:59:54.497Z,2.60
2022-12-16T18:00:51.462Z,2.30
2022-12-16T18:01:49.830Z,2.30
2022-12-16T18:02:49.880Z,2.60
2022-12-16T18:03:49.677Z,2.70
2022-12-16T18:04:49.665Z,2.40
2022-12-16T18:05:49.675Z,2.70
2022-12-16T18:06:49.677Z,2.40
2022-12-16T18:07:49.605Z,1.50
2022-12-16T18:08:49.591Z,1.70
2022-12-16T18:09:49.659Z,2.50
2022-12-16T18:10:49.533Z,3.00
2022-12-16T18:11:49.593Z,5.40
2022-12-16T18:12:49.905Z,4.10
2022-12-16T18:13:49.523Z,3.50
2022-12-16T18:14:49.495Z,3.30
2022-12-16T18:15:49.567Z,2.70
2022-12-16T18:16:49.532Z,2.90
2022-12-16T18:17:49.476Z,2.00
2022-12-16T18:18:50.873Z,2.80
2022-12-16T18:19:49.443Z,2.30